createdAt,value
2023-09-22T00:00:12.341Z,1.00
2023-09-22T00:02:40.877Z,1.20
2023-09-22T00:05:08.528Z,1.17
2023-09-22T00:07:35.513Z,1.00
2023-09-22T00:10:02.962Z,1.25
2023-09-22T00:12:30.469Z,1.10
2023-09-22T00:14:58.889Z,1.45
2023-09-22T00:17:29.271Z,1.33
2023-09-22T00:19:56.633Z,1.50
2023-09-22T00:22:23.784Z,0.90
2023-09-22T00:24:51.696Z,0.93
2023-09-22T00:27:18.777Z,1.48
2023-09-22T00:29:45.742Z,1.38
2023-09-22T00:32:13.622Z,1.20
2023-09-22T00:34:41.188Z,1.10
2023-09-22T00:37:08.871Z,1.27
2023-09-22T00:39:35.947Z,1.50
2023-09-22T00:42:06.743Z,1.20
2023-09-22T00:44:33.778Z,1.10
2023-09-22T00:47:01.002Z,1.38
2023-09-22T00:49:28.287Z,1.25
2023-09-22T00:51:55.668Z,1.10
2023-09-22T00:54:23.043Z,1.00
2023-09-22T00:56:50.380Z,1.30
2023-09-22T00:59:17.582Z,1.38
2023-09-22T01:01:44.466Z,1.00
2023-09-22T01:04:12.918Z,1.02
2023-09-22T01:06:40.687Z,1.02
2023-09-22T01:09:07.488Z,1.40
2023-09-22T01:11:35.451Z,1.40
2023-09-22T01:14:03.990Z,1.00
2023-09-22T01:16:31.143Z,1.23
2023-09-22T01:18:58.804Z,1.13
2023-09-22T01:21:36.001Z,1.05
2023-09-22T01:24:05.555Z,1.00
2023-09-22T01:26:32.406Z,0.95
2023-09-22T01:28:59.552Z,1.05
2023-09-22T01:31:26.539Z,0.90
2023-09-22T01:33:53.452Z,0.85
2023-09-22T01:36:20.615Z,0.80
2023-09-22T01:38:47.594Z,1.05
2023-09-22T01:41:14.630Z,1.05
2023-09-22T01:43:42.883Z,1.05
2023-09-22T01:46:09.957Z,1.10
2023-09-22T01:48:36.956Z,1.95
2023-09-22T01:51:04.388Z,1.30
2023-09-22T01:53:31.300Z,0.90
2023-09-22T01:55:58.455Z,1.00
2023-09-22T01:58:25.393Z,0.82
2023-09-22T02:00:53.007Z,1.08
2023-09-22T02:03:20.603Z,0.90
2023-09-22T02:05:47.962Z,0.95
2023-09-22T02:08:14.821Z,1.00
2023-09-22T02:10:42.035Z,0.90
2023-09-22T02:13:10.636Z,1.00
2023-09-22T02:15:38.205Z,0.85
2023-09-22T02:18:05.763Z,0.82
2023-09-22T02:20:32.896Z,0.80
2023-09-22T02:23:00.070Z,0.90
2023-09-22T02:25:27.494Z,1.05
2023-09-22T02:27:56.603Z,1.10
2023-09-22T02:30:24.146Z,1.10
2023-09-22T02:32:51.656Z,1.00
2023-09-22T02:35:19.804Z,0.95
2023-09-22T02:37:47.380Z,1.35
2023-09-22T02:40:15.363Z,1.08
2023-09-22T02:42:43.454Z,1.17
2023-09-22T02:45:10.918Z,1.00
2023-09-22T02:47:42.760Z,1.10
2023-09-22T02:50:12.407Z,1.00
2023-09-22T02:52:40.607Z,1.10
2023-09-22T02:55:13.049Z,1.15
2023-09-22T02:57:40.437Z,1.17
2023-09-22T03:00:16.731Z,1.00
2023-09-22T03:02:43.977Z,1.00
2023-09-22T03:05:12.072Z,0.73
2023-09-22T03:07:39.446Z,1.00
2023-09-22T03:10:08.176Z,1.08
2023-09-22T03:12:36.212Z,1.27
2023-09-22T03:15:04.764Z,1.27
2023-09-22T03:17:31.867Z,1.02
2023-09-22T03:19:59.483Z,1.45
2023-09-22T03:22:29.211Z,2.33
2023-09-22T03:24:56.114Z,1.40
2023-09-22T03:27:24.741Z,1.60
2023-09-22T03:29:52.250Z,1.20
2023-09-22T03:32:19.985Z,1.50
2023-09-22T03:34:50.060Z,1.42
2023-09-22T03:37:17.420Z,1.65
2023-09-22T03:39:44.374Z,1.40
2023-09-22T03:42:14.528Z,1.63
2023-09-22T03:44:41.737Z,1.20
2023-09-22T03:47:08.553Z,1.40
2023-09-22T03:49:35.530Z,1.45
2023-09-22T03:52:02.654Z,2.00
2023-09-22T03:54:29.945Z,1.55
2023-09-22T03:56:57.248Z,1.45
2023-09-22T03:59:24.083Z,1.85
2023-09-22T04:01:52.045Z,1.75
2023-09-22T04:04:19.191Z,1.20
2023-09-22T04:06:46.518Z,1.25
2023-09-22T04:09:13.876Z,1.63
2023-09-22T04:11:40.803Z,1.23
2023-09-22T04:14:07.955Z,1.10
2023-09-22T04:16:35.640Z,1.05
2023-09-22T04:19:02.527Z,1.23
2023-09-22T04:21:29.405Z,1.20
2023-09-22T04:23:59.456Z,1.40
2023-09-22T04:26:31.220Z,1.13
2023-09-22T04:29:00.290Z,1.10
2023-09-22T04:31:29.567Z,1.10
2023-09-22T04:33:57.028Z,1.10
2023-09-22T04:36:24.006Z,1.20
2023-09-22T04:38:51.478Z,1.02
2023-09-22T04:41:21.975Z,1.65
2023-09-22T04:43:49.344Z,1.20
2023-09-22T04:46:16.838Z,1.17
2023-09-22T04:48:44.589Z,1.58
2023-09-22T04:51:12.594Z,0.90
2023-09-22T04:53:41.031Z,0.80
2023-09-22T04:56:08.494Z,1.10
2023-09-22T04:58:35.669Z,1.10
2023-09-22T05:01:03.850Z,0.95
2023-09-22T05:03:32.196Z,0.88
2023-09-22T05:06:07.423Z,0.80
2023-09-22T05:08:34.897Z,0.80
2023-09-22T05:11:06.788Z,1.00
2023-09-22T05:13:35.141Z,0.60
2023-09-22T05:16:07.263Z,0.80
2023-09-22T05:18:35.083Z,1.00
2023-09-22T05:21:02.293Z,0.90
2023-09-22T05:23:36.030Z,0.85
2023-09-22T05:26:10.248Z,1.15
2023-09-22T05:28:37.664Z,0.70
2023-09-22T05:31:06.566Z,1.00
2023-09-22T05:33:37.188Z,1.20
2023-09-22T05:36:04.578Z,0.80
2023-09-22T05:38:31.378Z,1.10
2023-09-22T05:41:00.204Z,0.93
2023-09-22T05:43:27.146Z,1.00
2023-09-22T05:45:56.132Z,1.15
2023-09-22T05:48:23.549Z,0.82
2023-09-22T05:50:57.481Z,1.05
2023-09-22T05:53:29.240Z,1.15
2023-09-22T05:56:11.702Z,1.33
2023-09-22T05:58:40.271Z,1.20
2023-09-22T06:01:11.892Z,0.80
2023-09-22T06:03:40.888Z,0.80
2023-09-22T06:06:15.413Z,0.90
2023-09-22T06:08:47.089Z,0.80
2023-09-22T06:11:15.046Z,1.23
2023-09-22T06:13:43.722Z,0.85
2023-09-22T06:16:11.261Z,0.98
2023-09-22T06:18:42.349Z,1.15
2023-09-22T06:21:11.638Z,1.08
2023-09-22T06:23:41.967Z,1.02
2023-09-22T06:26:11.199Z,1.05
2023-09-22T06:28:39.481Z,1.00
2023-09-22T06:31:07.818Z,0.85
2023-09-22T06:33:34.973Z,0.80
2023-09-22T06:36:06.333Z,1.23
2023-09-22T06:38:42.510Z,0.90
2023-09-22T06:41:17.377Z,0.80
2023-09-22T06:43:56.229Z,0.90
2023-09-22T06:46:26.982Z,1.10
2023-09-22T06:48:54.193Z,1.20
2023-09-22T06:51:21.077Z,1.10
2023-09-22T06:53:49.460Z,0.95
2023-09-22T06:56:19.725Z,1.10
2023-09-22T06:58:49.192Z,1.20
2023-09-22T07:01:18.268Z,0.80
2023-09-22T07:03:46.899Z,1.10
2023-09-22T07:06:18.337Z,1.00
2023-09-22T07:08:48.481Z,1.00
2023-09-22T07:11:16.628Z,0.90
2023-09-22T07:13:43.764Z,0.90
2023-09-22T07:16:12.203Z,1.20
2023-09-22T07:18:39.417Z,1.02
2023-09-22T07:21:12.553Z,1.23
2023-09-22T07:23:39.619Z,1.38
2023-09-22T07:26:10.768Z,1.23
2023-09-22T07:28:37.820Z,0.90
2023-09-22T07:31:15.565Z,1.10
2023-09-22T07:33:44.627Z,1.13
2023-09-22T07:36:13.191Z,1.10
2023-09-22T07:38:41.119Z,1.27
2023-09-22T07:41:08.199Z,1.10
2023-09-22T07:43:37.196Z,1.02
2023-09-22T07:46:07.430Z,0.85
2023-09-22T07:48:35.336Z,1.15
2023-09-22T07:51:02.662Z,0.98
2023-09-22T07:53:29.704Z,0.90
2023-09-22T07:56:00.880Z,1.17
2023-09-22T07:58:29.216Z,1.02
2023-09-22T08:00:56.659Z,1.10
2023-09-22T08:03:23.725Z,1.10
2023-09-22T08:05:50.778Z,1.00
2023-09-22T08:08:18.584Z,0.77
2023-09-22T08:10:46.089Z,0.90
2023-09-22T08:13:13.061Z,1.08
2023-09-22T08:15:40.783Z,0.90
2023-09-22T08:18:08.298Z,0.95
2023-09-22T08:20:36.180Z,1.08
2023-09-22T08:23:03.999Z,0.90
2023-09-22T08:25:31.265Z,0.90
2023-09-22T08:27:59.776Z,1.02
2023-09-22T08:30:27.090Z,0.90
2023-09-22T08:32:55.658Z,0.90
2023-09-22T08:35:23.083Z,0.60
2023-09-22T08:37:50.482Z,1.00
2023-09-22T08:40:19.388Z,0.70
2023-09-22T08:42:49.717Z,1.08
2023-09-22T08:45:17.000Z,1.50
2023-09-22T08:47:47.166Z,0.82
2023-09-22T08:50:19.213Z,0.90
2023-09-22T08:52:47.632Z,1.05
2023-09-22T08:55:15.953Z,0.70
2023-09-22T08:57:45.740Z,1.52
2023-09-22T09:00:21.855Z,0.82
2023-09-22T09:02:53.731Z,0.90
2023-09-22T09:05:32.081Z,0.82
2023-09-22T09:08:23.254Z,0.90
2023-09-22T09:10:50.991Z,0.90
2023-09-22T09:13:20.005Z,1.10
2023-09-22T09:15:51.890Z,1.02
2023-09-22T09:18:20.867Z,0.90
2023-09-22T09:21:11.173Z,1.00
2023-09-22T09:23:39.366Z,1.65
2023-09-22T09:26:06.262Z,1.25
2023-09-22T09:28:40.077Z,1.05
2023-09-22T09:31:07.152Z,1.23
2023-09-22T09:33:35.064Z,1.02
2023-09-22T09:36:16.223Z,1.23
2023-09-22T09:38:44.150Z,1.13
2023-09-22T09:41:11.875Z,1.35
2023-09-22T09:43:43.912Z,1.10
2023-09-22T09:46:12.003Z,1.20
2023-09-22T09:48:39.852Z,1.05
2023-09-22T09:51:11.057Z,1.10
2023-09-22T09:53:44.415Z,1.42
2023-09-22T09:56:19.110Z,0.93
2023-09-22T09:58:49.633Z,0.70
2023-09-22T10:01:19.170Z,1.15
2023-09-22T10:03:47.061Z,0.95
2023-09-22T10:06:17.695Z,1.00
2023-09-22T10:08:44.661Z,1.00
2023-09-22T10:11:14.455Z,1.02
2023-09-22T10:13:41.417Z,1.00
2023-09-22T10:16:10.264Z,1.25
2023-09-22T10:18:50.869Z,1.35
2023-09-22T10:21:40.437Z,1.00
2023-09-22T10:24:20.912Z,1.20
2023-09-22T10:27:16.813Z,1.48
2023-09-22T10:29:47.190Z,1.30
2023-09-22T10:32:17.005Z,1.20
2023-09-22T10:35:05.457Z,0.85
2023-09-22T10:37:37.110Z,1.00
2023-09-22T10:40:13.440Z,0.90
2023-09-22T10:42:44.902Z,1.20
2023-09-22T10:45:12.579Z,0.88
2023-09-22T10:47:47.299Z,1.52
2023-09-22T10:50:20.137Z,1.15
2023-09-22T10:53:11.117Z,1.08
2023-09-22T10:55:43.387Z,0.98
2023-09-22T10:58:14.244Z,1.13
2023-09-22T11:00:46.042Z,1.00
2023-09-22T11:03:18.207Z,1.10
2023-09-22T11:05:48.164Z,1.13
2023-09-22T11:08:19.439Z,1.35
2023-09-22T11:10:51.074Z,0.90
2023-09-22T11:13:18.483Z,0.95
2023-09-22T11:16:01.343Z,0.90
2023-09-22T11:18:34.089Z,0.90
2023-09-22T11:21:03.640Z,1.00
2023-09-22T11:23:30.593Z,1.42
2023-09-22T11:26:04.452Z,1.23
2023-09-22T11:28:33.123Z,1.13
2023-09-22T11:31:17.619Z,1.17
2023-09-22T11:33:46.274Z,1.02
2023-09-22T11:36:13.942Z,1.20
2023-09-22T11:38:41.424Z,1.13
2023-09-22T11:41:12.899Z,1.02
2023-09-22T11:43:44.935Z,1.40
2023-09-22T11:46:13.081Z,1.20
2023-09-22T11:49:00.681Z,1.13
2023-09-22T11:52:03.014Z,0.80
2023-09-22T11:54:31.672Z,1.08
2023-09-22T11:56:59.907Z,1.00
2023-09-22T11:59:41.333Z,0.73
2023-09-22T12:02:08.408Z,0.93
2023-09-22T12:04:39.965Z,1.20
2023-09-22T12:07:07.626Z,0.90
2023-09-22T12:09:34.485Z,1.00
2023-09-22T12:12:01.315Z,0.90
2023-09-22T12:14:28.576Z,1.25
2023-09-22T12:16:55.721Z,1.00
2023-09-22T12:19:24.821Z,0.70
2023-09-22T12:21:51.762Z,0.90
2023-09-22T12:24:19.172Z,1.02
2023-09-22T12:26:48.074Z,0.80
2023-09-22T12:29:17.261Z,0.93
2023-09-22T12:31:46.082Z,1.05
2023-09-22T12:34:13.366Z,0.85
2023-09-22T12:36:40.354Z,0.77
2023-09-22T12:39:07.272Z,1.20
2023-09-22T12:41:34.169Z,1.02
2023-09-22T12:44:02.096Z,1.10
2023-09-22T12:46:29.278Z,1.00
2023-09-22T12:48:56.720Z,0.98
2023-09-22T12:51:23.655Z,0.80
2023-09-22T12:53:50.644Z,0.90
2023-09-22T12:56:17.473Z,1.08
2023-09-22T12:58:44.591Z,0.90
2023-09-22T13:01:14.442Z,0.70
2023-09-22T13:03:41.967Z,1.20
2023-09-22T13:06:09.188Z,0.90
2023-09-22T13:08:38.105Z,0.80
2023-09-22T13:11:05.830Z,1.10
2023-09-22T13:13:32.981Z,0.77
2023-09-22T13:16:00.181Z,1.00
2023-09-22T13:18:27.769Z,1.00
2023-09-22T13:20:54.978Z,1.13
2023-09-22T13:23:21.883Z,0.63
2023-09-22T13:25:48.876Z,1.05
2023-09-22T13:28:17.045Z,0.70
2023-09-22T13:30:54.724Z,0.85
2023-09-22T13:33:24.028Z,1.13
2023-09-22T13:35:51.483Z,1.00
2023-09-22T13:38:18.624Z,0.70
2023-09-22T13:40:45.934Z,0.90
2023-09-22T13:43:13.738Z,0.75
2023-09-22T13:45:40.948Z,0.90
2023-09-22T13:48:12.315Z,1.00
2023-09-22T13:50:40.292Z,0.70
2023-09-22T13:53:11.559Z,0.90
2023-09-22T13:55:42.925Z,0.80
2023-09-22T13:58:11.058Z,0.75
2023-09-22T14:00:38.679Z,0.90
2023-09-22T14:03:05.880Z,0.65
2023-09-22T14:05:36.025Z,0.65
2023-09-22T14:08:05.738Z,0.80
2023-09-22T14:10:32.693Z,0.77
2023-09-22T14:12:59.746Z,0.82
2023-09-22T14:15:26.670Z,1.00
2023-09-22T14:17:53.813Z,0.80
2023-09-22T14:20:21.743Z,1.15
2023-09-22T14:22:49.765Z,0.70
2023-09-22T14:25:17.411Z,0.95
2023-09-22T14:27:44.491Z,0.85
2023-09-22T14:30:13.158Z,0.68
2023-09-22T14:32:40.294Z,0.80
2023-09-22T14:35:08.174Z,1.00
2023-09-22T14:37:35.231Z,0.90
2023-09-22T14:40:02.997Z,1.00
2023-09-22T14:42:30.013Z,0.80
2023-09-22T14:44:57.229Z,0.82
2023-09-22T14:47:24.090Z,0.90
2023-09-22T14:49:51.253Z,1.10
2023-09-22T14:52:18.437Z,0.90
2023-09-22T14:54:45.252Z,0.70
2023-09-22T14:57:12.840Z,0.75
2023-09-22T14:59:39.692Z,1.05
2023-09-22T15:02:07.874Z,0.70
2023-09-22T15:04:35.042Z,0.85
2023-09-22T15:07:03.031Z,0.73
2023-09-22T15:09:31.103Z,1.15
2023-09-22T15:11:58.697Z,0.85
2023-09-22T15:14:28.899Z,0.90
2023-09-22T15:16:57.321Z,1.30
2023-09-22T15:19:24.612Z,0.88
2023-09-22T15:21:52.073Z,0.90
2023-09-22T15:24:18.921Z,0.80
2023-09-22T15:26:45.803Z,0.80
2023-09-22T15:29:12.705Z,0.73
2023-09-22T15:31:39.851Z,0.95
2023-09-22T15:34:06.943Z,0.95
2023-09-22T15:36:34.214Z,1.15
2023-09-22T15:39:01.114Z,0.70
2023-09-22T15:41:34.262Z,0.63
2023-09-22T15:44:05.521Z,0.90
2023-09-22T15:46:32.584Z,1.02
2023-09-22T15:48:59.832Z,0.90
2023-09-22T15:51:29.232Z,0.90
2023-09-22T15:53:56.463Z,1.20
2023-09-22T15:56:23.403Z,1.25
2023-09-22T15:58:50.535Z,0.80
2023-09-22T16:01:17.478Z,0.95
2023-09-22T16:03:44.631Z,0.80
2023-09-22T16:06:12.552Z,1.20
2023-09-22T16:08:39.734Z,1.08
2023-09-22T16:11:10.074Z,1.17
2023-09-22T16:13:37.912Z,1.52
2023-09-22T16:16:06.313Z,1.08
2023-09-22T16:18:33.740Z,1.27
2023-09-22T16:21:04.751Z,0.75
2023-09-22T16:23:35.105Z,0.70
2023-09-22T16:26:06.756Z,0.80
2023-09-22T16:28:34.663Z,0.70
2023-09-22T16:31:02.034Z,0.57
2023-09-22T16:33:30.456Z,0.63
2023-09-22T16:35:58.485Z,0.60
2023-09-22T16:38:26.203Z,0.75
2023-09-22T16:40:53.397Z,0.70
2023-09-22T16:43:20.520Z,0.50
2023-09-22T16:45:47.467Z,0.60
2023-09-22T16:48:14.645Z,0.80
2023-09-22T16:50:41.833Z,0.50
2023-09-22T16:53:10.096Z,0.50
2023-09-22T16:55:36.962Z,0.65
2023-09-22T16:58:04.018Z,0.70
2023-09-22T17:00:32.607Z,0.60
2023-09-22T17:03:01.035Z,0.50
2023-09-22T17:05:29.279Z,0.43
2023-09-22T17:07:57.057Z,0.68
2023-09-22T17:10:24.038Z,0.95
2023-09-22T17:12:53.454Z,0.70
2023-09-22T17:15:22.809Z,0.50
2023-09-22T17:17:50.246Z,0.60
2023-09-22T17:20:17.292Z,0.40
2023-09-22T17:22:44.250Z,0.50
2023-09-22T17:25:11.886Z,0.65
2023-09-22T17:27:39.314Z,0.65
2023-09-22T17:30:08.181Z,0.60
2023-09-22T17:32:35.214Z,0.47
2023-09-22T17:35:02.305Z,0.50
2023-09-22T17:37:29.979Z,0.50
2023-09-22T17:39:56.797Z,0.82
2023-09-22T17:42:24.076Z,0.43
2023-09-22T17:44:51.122Z,0.80
2023-09-22T17:47:17.982Z,0.52
2023-09-22T17:49:44.909Z,0.40
2023-09-22T17:52:11.920Z,0.40
2023-09-22T17:54:40.555Z,0.40
2023-09-22T17:57:07.926Z,0.50
2023-09-22T17:59:34.977Z,0.50
2023-09-22T18:02:02.064Z,0.55
2023-09-22T18:04:32.192Z,0.77
2023-09-22T18:06:59.270Z,0.50
2023-09-22T18:09:28.771Z,0.65
2023-09-22T18:11:55.994Z,0.57
2023-09-22T18:14:23.008Z,0.90
2023-09-22T18:16:49.812Z,0.70
2023-09-22T18:19:16.635Z,0.50
2023-09-22T18:21:46.220Z,0.55
2023-09-22T18:24:13.404Z,0.43
2023-09-22T18:26:40.222Z,0.63
2023-09-22T18:29:08.532Z,0.65
2023-09-22T18:31:36.042Z,0.60
2023-09-22T18:34:08.509Z,0.60
2023-09-22T18:36:35.844Z,0.70
2023-09-22T18:39:03.253Z,0.60
2023-09-22T18:41:30.282Z,0.73
2023-09-22T18:43:59.266Z,0.50
2023-09-22T18:46:26.553Z,0.70
2023-09-22T18:48:53.662Z,0.60
2023-09-22T18:51:22.678Z,0.60
2023-09-22T18:53:50.033Z,0.60
2023-09-22T18:56:16.998Z,0.50
2023-09-22T18:58:45.323Z,0.43
2023-09-22T19:01:13.753Z,0.68
2023-09-22T19:03:40.798Z,0.70
2023-09-22T19:06:11.820Z,0.90
2023-09-22T19:08:39.258Z,0.60
2023-09-22T19:11:07.297Z,0.80
2023-09-22T19:13:34.400Z,0.68
2023-09-22T19:16:05.403Z,0.95
2023-09-22T19:18:32.700Z,0.80
2023-09-22T19:21:06.348Z,0.47
2023-09-22T19:23:33.901Z,0.70
2023-09-22T19:26:00.969Z,0.68
2023-09-22T19:28:28.406Z,0.60
2023-09-22T19:30:58.642Z,0.55
2023-09-22T19:33:25.820Z,0.73
2023-09-22T19:35:52.810Z,0.68
2023-09-22T19:38:19.701Z,0.80
2023-09-22T19:40:46.679Z,0.68
2023-09-22T19:43:14.933Z,0.50
2023-09-22T19:45:42.107Z,0.55
2023-09-22T19:48:09.055Z,0.70
2023-09-22T19:50:38.602Z,0.57
2023-09-22T19:53:07.136Z,0.63
2023-09-22T19:55:35.215Z,0.60
2023-09-22T19:58:02.298Z,0.63
2023-09-22T20:00:29.495Z,0.60
2023-09-22T20:02:56.956Z,0.47
2023-09-22T20:05:25.003Z,0.65
2023-09-22T20:07:53.001Z,0.60
2023-09-22T20:10:19.929Z,0.60
2023-09-22T20:12:46.752Z,0.60
2023-09-22T20:15:13.687Z,0.70
2023-09-22T20:17:41.002Z,0.50
2023-09-22T20:20:14.081Z,0.70
2023-09-22T20:22:41.001Z,0.50
2023-09-22T20:25:08.602Z,0.70
2023-09-22T20:27:35.565Z,0.60
2023-09-22T20:30:03.105Z,0.73
2023-09-22T20:32:30.120Z,0.60
2023-09-22T20:34:58.094Z,1.00
2023-09-22T20:37:25.322Z,0.50
2023-09-22T20:39:55.752Z,0.40
2023-09-22T20:42:23.010Z,0.70
2023-09-22T20:44:52.674Z,0.73
2023-09-22T20:47:21.244Z,0.63
2023-09-22T20:49:53.150Z,0.60
2023-09-22T20:52:20.542Z,0.50
2023-09-22T20:54:49.301Z,0.57
2023-09-22T20:57:16.300Z,0.77
2023-09-22T20:59:43.174Z,0.60
2023-09-22T21:02:12.117Z,0.60
2023-09-22T21:04:39.101Z,0.55
2023-09-22T21:07:07.463Z,0.57
2023-09-22T21:09:34.433Z,0.90
2023-09-22T21:12:01.654Z,0.60
2023-09-22T21:14:28.724Z,0.77
2023-09-22T21:16:56.401Z,0.68
2023-09-22T21:19:25.863Z,0.50
2023-09-22T21:21:53.274Z,0.63
2023-09-22T21:24:20.302Z,0.70
2023-09-22T21:26:47.395Z,0.60
2023-09-22T21:29:19.735Z,1.25
2023-09-22T21:31:48.397Z,0.47
2023-09-22T21:34:15.512Z,0.70
2023-09-22T21:36:42.479Z,0.55
2023-09-22T21:39:09.949Z,0.60
2023-09-22T21:41:40.195Z,0.60
2023-09-22T21:44:11.579Z,0.70
2023-09-22T21:46:38.606Z,0.60
2023-09-22T21:49:06.773Z,0.52
2023-09-22T21:51:33.624Z,0.63
2023-09-22T21:54:00.584Z,0.50
2023-09-22T21:56:27.767Z,0.43
2023-09-22T21:58:56.841Z,0.50
2023-09-22T22:01:25.040Z,0.50
2023-09-22T22:03:54.196Z,0.52
2023-09-22T22:06:24.780Z,0.60
2023-09-22T22:08:52.602Z,0.60
2023-09-22T22:11:21.100Z,0.60
2023-09-22T22:13:48.127Z,0.63
2023-09-22T22:16:17.614Z,0.52
2023-09-22T22:18:46.686Z,0.50
2023-09-22T22:21:16.244Z,0.60
2023-09-22T22:23:44.309Z,0.70
2023-09-22T22:26:12.644Z,0.60
2023-09-22T22:28:44.441Z,0.30
2023-09-22T22:31:12.516Z,0.50
2023-09-22T22:33:39.723Z,0.60
2023-09-22T22:36:07.438Z,0.50
2023-09-22T22:38:34.759Z,0.50
2023-09-22T22:41:02.146Z,0.45
2023-09-22T22:43:31.529Z,0.70
2023-09-22T22:46:05.579Z,0.70
2023-09-22T22:48:35.549Z,0.50
2023-09-22T22:51:03.183Z,0.55
2023-09-22T22:53:30.697Z,0.60
2023-09-22T22:55:59.946Z,0.60
2023-09-22T22:58:27.461Z,0.40
2023-09-22T23:00:56.515Z,0.60
2023-09-22T23:03:26.067Z,0.38
2023-09-22T23:05:58.122Z,0.55
2023-09-22T23:08:25.598Z,0.50
2023-09-22T23:11:07.210Z,0.55
2023-09-22T23:13:36.754Z,0.47
2023-09-22T23:16:07.383Z,0.43
2023-09-22T23:18:36.715Z,0.25
2023-09-22T23:21:05.559Z,1.05
2023-09-22T23:23:34.092Z,0.55
2023-09-22T23:26:07.572Z,0.50
2023-09-22T23:28:35.480Z,0.77
2023-09-22T23:31:03.785Z,0.52
2023-09-22T23:33:30.817Z,0.60
2023-09-22T23:35:59.166Z,0.50
2023-09-22T23:38:26.658Z,0.50
2023-09-22T23:40:54.088Z,0.50
2023-09-22T23:43:25.604Z,0.40
2023-09-22T23:45:52.885Z,0.60
2023-09-22T23:48:19.909Z,0.50
2023-09-22T23:50:47.711Z,0.68
2023-09-22T23:53:15.274Z,0.50
2023-09-22T23:55:44.478Z,0.50
2023-09-22T23:58:14.729Z,0.52
